sensor_id;sensor_type;location;lat;lon;timestamp;pressure;altitude;pressure_sealevel;temperature;humidity
53619;BME280;68717;53.040;18.488;2023-04-25T00:00:08;99992.75;;;13.59;100.00
53619;BME280;68717;53.040;18.488;2023-04-25T00:00:31;99998.31;;;13.58;100.00
53619;BME280;68717;53.040;18.488;2023-04-25T00:01:04;99993.94;;;13.57;100.00
53619;BME280;68717;53.040;18.488;2023-04-25T00:01:18;99994.94;;;13.55;100.00
53619;BME280;68717;53.040;18.488;2023-04-25T00:01:31;99994.09;;;13.55;100.00
53619;BME280;68717;53.040;18.488;2023-04-25T00:01:47;99997.78;;;13.54;100.00
53619;BME280;68717;53.040;18.488;2023-04-25T00:02:00;99994.25;;;13.53;100.00
53619;BME280;68717;53.040;18.488;2023-04-25T00:02:12;99999.66;;;13.53;100.00
53619;BME280;68717;53.040;18.488;2023-04-25T00:02:25;99995.09;;;13.54;100.00
53619;BME280;68717;53.040;18.488;2023-04-25T00:02:39;99992.59;;;13.52;100.00
53619;BME280;68717;53.040;18.488;2023-04-25T00:02:52;99997.97;;;13.52;100.00
53619;BME280;68717;53.040;18.488;2023-04-25T00:03:05;99993.44;;;13.53;100.00
53619;BME280;68717;53.040;18.488;2023-04-25T00:03:21;99988.88;;;13.53;100.00
53619;BME280;68717;53.040;18.488;2023-04-25T00:03:35;99993.44;;;13.53;100.00
53619;BME280;68717;53.040;18.488;2023-04-25T00:03:48;99987.22;;;13.52;100.00
53619;BME280;68717;53.040;18.488;2023-04-25T00:04:01;99997.97;;;13.52;100.00
53619;BME280;68717;53.040;18.488;2023-04-25T00:04:15;99998.81;;;13.53;100.00
53619;BME280;68717;53.040;18.488;2023-04-25T00:04:28;99994.44;;;13.52;100.00
53619;BME280;68717;53.040;18.488;2023-04-25T00:04:42;99992.59;;;13.52;100.00
53619;BME280;68717;53.040;18.488;2023-04-25T00:04:57;99994.25;;;13.53;100.00
53619;BME280;68717;53.040;18.488;2023-04-25T00:05:11;99989.72;;;13.54;100.00
53619;BME280;68717;53.040;18.488;2023-04-25T00:05:25;99994.25;;;13.53;100.00
53619;BME280;68717;53.040;18.488;2023-04-25T00:05:37;99994.25;;;13.53;100.00
53619;BME280;68717;53.040;18.488;2023-04-25T00:05:51;99992.59;;;13.52;100.00
53619;BME280;68717;53.040;18.488;2023-04-25T00:06:04;99994.25;;;13.53;100.00
53619;BME280;68717;53.040;18.488;2023-04-25T00:06:18;99995.09;;;13.54;100.00
53619;BME280;68717;53.040;18.488;2023-04-25T00:06:31;99989.72;;;13.54;100.00
53619;BME280;68717;53.040;18.488;2023-04-25T00:06:44;99988.88;;;13.53;100.00
53619;BME280;68717;53.040;18.488;2023-04-25T00:06:57;99995.28;;;13.52;100.00
53619;BME280;68717;53.040;18.488;2023-04-25T00:07:10;99992.41;;;13.54;100.00
53619;BME280;68717;53.040;18.488;2023-04-25T00:07:25;99996.97;;;13.53;100.00
53619;BME280;68717;53.040;18.488;2023-04-25T00:07:38;99993.44;;;13.53;100.00
53619;BME280;68717;53.040;18.488;2023-04-25T00:07:52;99996.97;;;13.53;100.00
53619;BME280;68717;53.040;18.488;2023-04-25T00:08:04;99996.13;;;13.53;100.00
53619;BME280;68717;53.040;18.488;2023-04-25T00:08:17;99991.56;;;13.53;100.00
53619;BME280;68717;53.040;18.488;2023-04-25T00:08:30;99985.34;;;13.53;100.00
53619;BME280;68717;53.040;18.488;2023-04-25T00:08:43;99988.88;;;13.53;100.00
53619;BME280;68717;53.040;18.488;2023-04-25T00:08:56;99994.25;;;13.53;100.00
53619;BME280;68717;53.040;18.488;2023-04-25T00:09:10;99992.59;;;13.52;100.00
53619;BME280;68717;53.040;18.488;2023-04-25T00:09:42;99988.19;;;13.51;100.00
53619;BME280;68717;53.040;18.488;2023-04-25T00:09:55;99986.34;;;13.52;100.00
53619;BME280;68717;53.040;18.488;2023-04-25T00:10:08;99991.72;;;13.52;100.00
53619;BME280;68717;53.040;18.488;2023-04-25T00:10:22;99989.03;;;13.52;100.00
53619;BME280;68717;53.040;18.488;2023-04-25T00:10:36;99992.59;;;13.52;100.00
53619;BME280;68717;53.040;18.488;2023-04-25T00:10:48;99989.03;;;13.52;100.00
53619;BME280;68717;53.040;18.488;2023-04-25T00:11:01;99990.91;;;13.51;100.00
53619;BME280;68717;53.040;18.488;2023-04-25T00:11:14;99983.84;;;13.50;100.00
53619;BME280;68717;53.040;18.488;2023-04-25T00:11:27;99986.34;;;13.52;100.00
53619;BME280;68717;53.040;18.488;2023-04-25T00:11:40;99989.03;;;13.52;100.00
53619;BME280;68717;53.040;18.488;2023-04-25T00:11:53;99987.53;;;13.49;100.00
53619;BME280;68717;53.040;18.488;2023-04-25T00:12:06;99983.84;;;13.50;100.00
53619;BME280;68717;53.040;18.488;2023-04-25T00:12:20;99992.75;;;13.51;100.00
53619;BME280;68717;53.040;18.488;2023-04-25T00:12:35;99988.41;;;13.50;100.00
53619;BME280;68717;53.040;18.488;2023-04-25T00:12:48;99982.00;;;13.51;100.00
53619;BME280;68717;53.040;18.488;2023-04-25T00:13:01;99991.94;;;13.50;100.00
53619;BME280;68717;53.040;18.488;2023-04-25T00:13:14;99980.31;;;13.50;100.00
53619;BME280;68717;53.040;18.488;2023-04-25T00:13:29;99988.41;;;13.50;100.00
53619;BME280;68717;53.040;18.488;2023-04-25T00:13:42;99983.00;;;13.50;100.00
53619;BME280;68717;53.040;18.488;2023-04-25T00:13:56;99987.53;;;13.49;100.00
53619;BME280;68717;53.040;18.488;2023-04-25T00:14:09;99984.69;;;13.51;100.00
53619;BME280;68717;53.040;18.488;2023-04-25T00:14:22;99981.16;;;13.50;100.00
53619;BME280;68717;53.040;18.488;2023-04-25T00:14:35;99991.94;;;13.50;100.00
53619;BME280;68717;53.040;18.488;2023-04-25T00:14:47;99993.78;;;13.50;100.00
53619;BME280;68717;53.040;18.488;2023-04-25T00:15:02;99983.84;;;13.50;100.00
53619;BME280;68717;53.040;18.488;2023-04-25T00:15:15;99986.53;;;13.50;100.00
53619;BME280;68717;53.040;18.488;2023-04-25T00:15:28;99988.41;;;13.50;100.00
53619;BME280;68717;53.040;18.488;2023-04-25T00:15:43;99984.69;;;13.51;100.00
53619;BME280;68717;53.040;18.488;2023-04-25T00:15:56;99985.69;;;13.50;100.00
53619;BME280;68717;53.040;18.488;2023-04-25T00:16:10;99989.22;;;13.50;100.00
53619;BME280;68717;53.040;18.488;2023-04-25T00:16:23;99987.53;;;13.49;100.00
53619;BME280;68717;53.040;18.488;2023-04-25T00:16:36;99992.91;;;13.49;100.00
53619;BME280;68717;53.040;18.488;2023-04-25T00:16:50;99986.69;;;13.49;100.00
53619;BME280;68717;53.040;18.488;2023-04-25T00:17:04;99992.91;;;13.49;100.00
53619;BME280;68717;53.040;18.488;2023-04-25T00:17:18;99990.41;;;13.48;100.00
53619;BME280;68717;53.040;18.488;2023-04-25T00:17:31;99987.72;;;13.48;100.00
53619;BME280;68717;53.040;18.488;2023-04-25T00:17:44;99983.84;;;13.50;100.00
53619;BME280;68717;53.040;18.488;2023-04-25T00:17:58;99986.34;;;13.52;100.00
53619;BME280;68717;53.040;18.488;2023-04-25T00:18:10;99986.34;;;13.52;100.00
53619;BME280;68717;53.040;18.488;2023-04-25T00:18:23;99984.69;;;13.51;100.00
53619;BME280;68717;53.040;18.488;2023-04-25T00:18:37;99986.34;;;13.52;100.00
53619;BME280;68717;53.040;18.488;2023-04-25T00:18:50;99991.72;;;13.52;100.00
53619;BME280;68717;53.040;18.488;2023-04-25T00:19:06;99989.22;;;13.50;100.00
53619;BME280;68717;53.040;18.488;2023-04-25T00:19:20;99989.22;;;13.50;100.00
53619;BME280;68717;53.040;18.488;2023-04-25T00:19:32;99984.69;;;13.51;100.00
53619;BME280;68717;53.040;18.488;2023-04-25T00:19:47;99988.41;;;13.50;100.00
53619;BME280;68717;53.040;18.488;2023-04-25T00:20:00;99988.41;;;13.50;100.00
53619;BME280;68717;53.040;18.488;2023-04-25T00:20:12;99985.69;;;13.50;100.00
53619;BME280;68717;53.040;18.488;2023-04-25T00:20:25;99985.69;;;13.50;100.00
53619;BME280;68717;53.040;18.488;2023-04-25T00:20:38;99986.69;;;13.49;100.00
53619;BME280;68717;53.040;18.488;2023-04-25T00:20:50;99984.69;;;13.51;100.00
53619;BME280;68717;53.040;18.488;2023-04-25T00:21:03;99984.69;;;13.51;100.00
53619;BME280;68717;53.040;18.488;2023-04-25T00:21:18;99990.91;;;13.51;100.00
53619;BME280;68717;53.040;18.488;2023-04-25T00:21:32;99991.72;;;13.52;100.00
53619;BME280;68717;53.040;18.488;2023-04-25T00:21:45;99984.69;;;13.51;100.00
53619;BME280;68717;53.040;18.488;2023-04-25T00:21:58;99985.69;;;13.50;100.00
53619;BME280;68717;53.040;18.488;2023-04-25T00:22:11;99992.09;;;13.49;100.00
53619;BME280;68717;53.040;18.488;2023-04-25T00:22:24;99986.69;;;13.49;100.00
53619;BME280;68717;53.040;18.488;2023-04-25T00:22:37;99984.00;;;13.49;100.00
53619;BME280;68717;53.040;18.488;2023-04-25T00:22:49;99984.00;;;13.49;100.00
53619;BME280;68717;53.040;18.488;2023-04-25T00:23:05;99988.41;;;13.50;100.00
53619;BME280;68717;53.040;18.488;2023-04-25T00:23:17;99986.69;;;13.49;100.00
53619;BME280;68717;53.040;18.488;2023-04-25T00:23:31;99991.41;;;13.47;100.00
53619;BME280;68717;53.040;18.488;2023-04-25T00:23:43;99990.41;;;13.48;100.00
53619;BME280;68717;53.040;18.488;2023-04-25T00:23:58;99981.31;;;13.49;100.00
53619;BME280;68717;53.040;18.488;2023-04-25T00:24:10;99986.69;;;13.49;100.00
53619;BME280;68717;53.040;18.488;2023-04-25T00:24:23;99985.03;;;13.48;100.00
53619;BME280;68717;53.040;18.488;2023-04-25T00:24:37;99986.03;;;13.47;100.00
53619;BME280;68717;53.040;18.488;2023-04-25T00:24:50;99991.41;;;13.47;100.00
53619;BME280;68717;53.040;18.488;2023-04-25T00:25:03;99987.72;;;13.48;100.00
53619;BME280;68717;53.040;18.488;2023-04-25T00:25:16;99987.72;;;13.48;100.00
53619;BME280;68717;53.040;18.488;2023-04-25T00:25:29;99986.03;;;13.47;100.00
53619;BME280;68717;53.040;18.488;2023-04-25T00:25:42;99988.72;;;13.47;100.00
53619;BME280;68717;53.040;18.488;2023-04-25T00:25:56;99985.03;;;13.48;100.00
53619;BME280;68717;53.040;18.488;2023-04-25T00:26:08;99988.72;;;13.47;100.00
53619;BME280;68717;53.040;18.488;2023-04-25T00:26:21;99981.66;;;13.46;100.00
53619;BME280;68717;53.040;18.488;2023-04-25T00:26:34;99988.72;;;13.47;100.00
53619;BME280;68717;53.040;18.488;2023-04-25T00:26:47;99990.56;;;13.46;100.00
53619;BME280;68717;53.040;18.488;2023-04-25T00:27:00;99988.72;;;13.47;100.00
53619;BME280;68717;53.040;18.488;2023-04-25T00:27:14;99987.88;;;13.46;100.00
53619;BME280;68717;53.040;18.488;2023-04-25T00:27:26;99987.06;;;13.46;100.00
53619;BME280;68717;53.040;18.488;2023-04-25T00:27:39;99984.34;;;13.46;100.00
53619;BME280;68717;53.040;18.488;2023-04-25T00:27:54;99990.75;;;13.45;100.00
53619;BME280;68717;53.040;18.488;2023-04-25T00:28:07;99991.56;;;13.45;100.00
53619;BME280;68717;53.040;18.488;2023-04-25T00:28:20;99984.53;;;13.44;100.00
53619;BME280;68717;53.040;18.488;2023-04-25T00:28:33;99983.50;;;13.45;100.00
53619;BME280;68717;53.040;18.488;2023-04-25T00:28:46;99990.56;;;13.46;100.00
53619;BME280;68717;53.040;18.488;2023-04-25T00:29:00;99988.72;;;13.47;100.00
53619;BME280;68717;53.040;18.488;2023-04-25T00:29:12;99986.03;;;13.47;100.00
53619;BME280;68717;53.040;18.488;2023-04-25T00:29:25;99987.06;;;13.46;100.00
53619;BME280;68717;53.040;18.488;2023-04-25T00:29:38;99987.06;;;13.46;100.00
53619;BME280;68717;53.040;18.488;2023-04-25T00:29:51;99987.06;;;13.46;100.00
53619;BME280;68717;53.040;18.488;2023-04-25T00:30:05;99982.50;;;13.46;100.00
53619;BME280;68717;53.040;18.488;2023-04-25T00:30:18;99993.44;;;13.45;100.00
53619;BME280;68717;53.040;18.488;2023-04-25T00:30:31;99989.75;;;13.46;100.00
53619;BME280;68717;53.040;18.488;2023-04-25T00:30:44;99985.34;;;13.45;100.00
53619;BME280;68717;53.040;18.488;2023-04-25T00:30:57;99985.34;;;13.45;100.00
53619;BME280;68717;53.040;18.488;2023-04-25T00:31:09;99988.88;;;13.45;100.00
53619;BME280;68717;53.040;18.488;2023-04-25T00:31:23;99986.38;;;13.44;100.00
53619;BME280;68717;53.040;18.488;2023-04-25T00:31:36;99987.06;;;13.46;100.00
53619;BME280;68717;53.040;18.488;2023-04-25T00:31:50;99992.44;;;13.46;100.00
53619;BME280;68717;53.040;18.488;2023-04-25T00:32:03;99985.34;;;13.45;100.00
53619;BME280;68717;53.040;18.488;2023-04-25T00:32:16;99981.66;;;13.46;100.00
53619;BME280;68717;53.040;18.488;2023-04-25T00:32:28;99997.81;;;13.46;100.00
53619;BME280;68717;53.040;18.488;2023-04-25T00:32:42;99989.75;;;13.46;100.00
53619;BME280;68717;53.040;18.488;2023-04-25T00:32:55;99988.03;;;13.45;100.00
53619;BME280;68717;53.040;18.488;2023-04-25T00:33:08;99990.56;;;13.46;100.00
53619;BME280;68717;53.040;18.488;2023-04-25T00:33:21;99989.75;;;13.46;100.00
53619;BME280;68717;53.040;18.488;2023-04-25T00:33:34;99982.50;;;13.46;100.00
53619;BME280;68717;53.040;18.488;2023-04-25T00:33:47;99985.34;;;13.45;100.00
53619;BME280;68717;53.040;18.488;2023-04-25T00:34:01;99986.19;;;13.45;100.00
53619;BME280;68717;53.040;18.488;2023-04-25T00:34:14;99987.06;;;13.46;100.00
53619;BME280;68717;53.040;18.488;2023-04-25T00:34:27;99987.88;;;13.46;100.00
53619;BME280;68717;53.040;18.488;2023-04-25T00:34:40;99990.56;;;13.46;100.00
53619;BME280;68717;53.040;18.488;2023-04-25T00:34:53;99979.97;;;13.45;100.00
53619;BME280;68717;53.040;18.488;2023-04-25T00:35:06;99986.03;;;13.47;100.00
53619;BME280;68717;53.040;18.488;2023-04-25T00:35:18;99985.34;;;13.45;100.00
53619;BME280;68717;53.040;18.488;2023-04-25T00:35:31;99977.28;;;13.45;100.00
53619;BME280;68717;53.040;18.488;2023-04-25T00:35:44;99984.34;;;13.46;100.00
53619;BME280;68717;53.040;18.488;2023-04-25T00:35:58;99981.81;;;13.44;100.00
53619;BME280;68717;53.040;18.488;2023-04-25T00:36:10;99984.34;;;13.46;100.00
53619;BME280;68717;53.040;18.488;2023-04-25T00:36:24;99985.34;;;13.45;100.00
53619;BME280;68717;53.040;18.488;2023-04-25T00:36:37;99983.69;;;13.44;100.00
53619;BME280;68717;53.040;18.488;2023-04-25T00:36:50;99981.81;;;13.44;100.00
53619;BME280;68717;53.040;18.488;2023-04-25T00:37:03;99983.69;;;13.44;100.00
53619;BME280;68717;53.040;18.488;2023-04-25T00:37:15;99979.97;;;13.45;100.00
53619;BME280;68717;53.040;18.488;2023-04-25T00:37:30;99987.38;;;13.43;100.00
53619;BME280;68717;53.040;18.488;2023-04-25T00:37:43;99986.38;;;13.44;100.00
53619;BME280;68717;53.040;18.488;2023-04-25T00:37:56;99989.06;;;13.44;100.00
53619;BME280;68717;53.040;18.488;2023-04-25T00:38:09;99985.50;;;13.43;100.00
53619;BME280;68717;53.040;18.488;2023-04-25T00:38:21;99989.91;;;13.44;100.00
53619;BME280;68717;53.040;18.488;2023-04-25T00:38:35;99982.00;;;13.43;100.00
53619;BME280;68717;53.040;18.488;2023-04-25T00:38:48;99987.38;;;13.43;100.00
53619;BME280;68717;53.040;18.488;2023-04-25T00:39:01;99988.22;;;13.43;100.00
53619;BME280;68717;53.040;18.488;2023-04-25T00:39:13;99987.38;;;13.43;100.00
53619;BME280;68717;53.040;18.488;2023-04-25T00:39:26;99987.38;;;13.43;100.00
53619;BME280;68717;53.040;18.488;2023-04-25T00:39:39;99994.47;;;13.44;100.00
53619;BME280;68717;53.040;18.488;2023-04-25T00:39:52;99988.41;;;13.42;100.00
53619;BME280;68717;53.040;18.488;2023-04-25T00:40:08;99980.31;;;13.42;100.00
53619;BME280;68717;53.040;18.488;2023-04-25T00:40:22;99983.00;;;13.42;100.00
53619;BME280;68717;53.040;18.488;2023-04-25T00:40:35;99983.00;;;13.42;100.00
53619;BME280;68717;53.040;18.488;2023-04-25T00:40:48;99984.00;;;13.41;100.00
53619;BME280;68717;53.040;18.488;2023-04-25T00:41:01;99985.69;;;13.42;100.00
53619;BME280;68717;53.040;18.488;2023-04-25T00:41:14;99984.00;;;13.41;100.00
53619;BME280;68717;53.040;18.488;2023-04-25T00:41:26;99984.88;;;13.41;100.00
53619;BME280;68717;53.040;18.488;2023-04-25T00:41:42;99983.00;;;13.42;100.00
53619;BME280;68717;53.040;18.488;2023-04-25T00:41:55;99980.31;;;13.42;100.00
53619;BME280;68717;53.040;18.488;2023-04-25T00:42:09;99984.00;;;13.41;100.00
53619;BME280;68717;53.040;18.488;2023-04-25T00:42:22;99991.09;;;13.42;100.00
53619;BME280;68717;53.040;18.488;2023-04-25T00:42:35;99986.69;;;13.41;100.00
53619;BME280;68717;53.040;18.488;2023-04-25T00:42:49;99988.56;;;13.40;100.00
53619;BME280;68717;53.040;18.488;2023-04-25T00:43:05;99981.50;;;13.39;100.00
53619;BME280;68717;53.040;18.488;2023-04-25T00:43:17;99983.16;;;13.40;100.00
53619;BME280;68717;53.040;18.488;2023-04-25T00:43:31;99983.16;;;13.40;100.00
53619;BME280;68717;53.040;18.488;2023-04-25T00:43:45;99988.72;;;13.39;100.00
53619;BME280;68717;53.040;18.488;2023-04-25T00:43:59;99986.03;;;13.39;100.00
53619;BME280;68717;53.040;18.488;2023-04-25T00:44:12;99981.50;;;13.39;100.00
53619;BME280;68717;53.040;18.488;2023-04-25T00:44:29;99990.41;;;13.40;100.00
53619;BME280;68717;53.040;18.488;2023-04-25T00:44:43;99987.88;;;13.38;100.00
53619;BME280;68717;53.040;18.488;2023-04-25T00:44:58;99985.19;;;13.38;100.00
53619;BME280;68717;53.040;18.488;2023-04-25T00:45:13;99978.97;;;13.38;100.00
53619;BME280;68717;53.040;18.488;2023-04-25T00:45:28;99986.22;;;13.37;100.00
53619;BME280;68717;53.040;18.488;2023-04-25T00:45:42;99987.22;;;13.36;100.00
53619;BME280;68717;53.040;18.488;2023-04-25T00:45:57;99988.03;;;13.37;100.00
53619;BME280;68717;53.040;18.488;2023-04-25T00:46:09;99988.03;;;13.37;100.00
53619;BME280;68717;53.040;18.488;2023-04-25T00:46:22;99988.03;;;13.37;100.00
53619;BME280;68717;53.040;18.488;2023-04-25T00:46:35;99988.03;;;13.37;100.00
53619;BME280;68717;53.040;18.488;2023-04-25T00:46:50;99983.53;;;13.37;100.00
53619;BME280;68717;53.040;18.488;2023-04-25T00:47:03;99977.28;;;13.37;100.00
53619;BME280;68717;53.040;18.488;2023-04-25T00:47:17;99984.34;;;13.38;100.00
53619;BME280;68717;53.040;18.488;2023-04-25T00:47:31;99979.13;;;13.36;100.00
53619;BME280;68717;53.040;18.488;2023-04-25T00:47:45;99983.53;;;13.37;100.00
53619;BME280;68717;53.040;18.488;2023-04-25T00:47:58;99989.75;;;13.38;100.00
53619;BME280;68717;53.040;18.488;2023-04-25T00:48:11;99987.06;;;13.38;100.00
53619;BME280;68717;53.040;18.488;2023-04-25T00:48:26;99980.63;;;13.39;100.00
53619;BME280;68717;53.040;18.488;2023-04-25T00:48:39;99981.66;;;13.38;100.00
53619;BME280;68717;53.040;18.488;2023-04-25T00:48:51;99985.19;;;13.38;100.00
53619;BME280;68717;53.040;18.488;2023-04-25T00:49:05;99990.56;;;13.38;100.00
53619;BME280;68717;53.040;18.488;2023-04-25T00:49:18;99984.34;;;13.38;100.00
53619;BME280;68717;53.040;18.488;2023-04-25T00:49:31;99986.03;;;13.39;100.00
53619;BME280;68717;53.040;18.488;2023-04-25T00:49:43;99988.72;;;13.39;100.00
53619;BME280;68717;53.040;18.488;2023-04-25T00:49:56;99987.06;;;13.38;100.00
53619;BME280;68717;53.040;18.488;2023-04-25T00:50:09;99981.66;;;13.38;100.00
53619;BME280;68717;53.040;18.488;2023-04-25T00:50:22;99984.34;;;13.38;100.00
53619;BME280;68717;53.040;18.488;2023-04-25T00:50:37;99985.19;;;13.38;100.00
53619;BME280;68717;53.040;18.488;2023-04-25T00:50:52;99982.50;;;13.38;100.00
53619;BME280;68717;53.040;18.488;2023-04-25T00:51:05;99978.97;;;13.38;100.00
53619;BME280;68717;53.040;18.488;2023-04-25T00:51:20;99987.06;;;13.38;100.00
53619;BME280;68717;53.040;18.488;2023-04-25T00:51:33;99983.53;;;13.37;100.00
53619;BME280;68717;53.040;18.488;2023-04-25T00:51:46;99989.75;;;13.38;100.00
53619;BME280;68717;53.040;18.488;2023-04-25T00:51:59;99981.66;;;13.38;100.00
53619;BME280;68717;53.040;18.488;2023-04-25T00:52:13;99984.34;;;13.38;100.00
53619;BME280;68717;53.040;18.488;2023-04-25T00:52:26;99980.84;;;13.37;100.00
53619;BME280;68717;53.040;18.488;2023-04-25T00:52:40;99980.16;;;13.35;100.00
53619;BME280;68717;53.040;18.488;2023-04-25T00:52:53;99979.97;;;13.37;100.00
53619;BME280;68717;53.040;18.488;2023-04-25T00:53:06;99985.34;;;13.37;100.00
53619;BME280;68717;53.040;18.488;2023-04-25T00:53:19;99981.81;;;13.36;100.00
53619;BME280;68717;53.040;18.488;2023-04-25T00:53:33;99977.28;;;13.37;100.00
53619;BME280;68717;53.040;18.488;2023-04-25T00:53:47;99981.81;;;13.36;100.00
53619;BME280;68717;53.040;18.488;2023-04-25T00:54:02;99985.34;;;13.37;100.00
53619;BME280;68717;53.040;18.488;2023-04-25T00:54:15;99983.53;;;13.37;100.00
53619;BME280;68717;53.040;18.488;2023-04-25T00:54:28;99984.69;;;13.34;100.00
53619;BME280;68717;53.040;18.488;2023-04-25T00:54:43;99980.16;;;13.35;100.00
53619;BME280;68717;53.040;18.488;2023-04-25T00:54:56;99979.28;;;13.34;100.00
53619;BME280;68717;53.040;18.488;2023-04-25T00:55:10;99981.16;;;13.34;100.00
53619;BME280;68717;53.040;18.488;2023-04-25T00:55:23;99983.00;;;13.33;100.00
53619;BME280;68717;53.040;18.488;2023-04-25T00:55:36;99985.69;;;13.33;100.00
53619;BME280;68717;53.040;18.488;2023-04-25T00:55:50;99982.19;;;13.33;100.00
53619;BME280;68717;53.040;18.488;2023-04-25T00:56:03;99980.47;;;13.32;100.00
53619;BME280;68717;53.040;18.488;2023-04-25T00:56:17;99989.41;;;13.32;100.00
53619;BME280;68717;53.040;18.488;2023-04-25T00:56:30;99980.47;;;13.32;100.00
53619;BME280;68717;53.040;18.488;2023-04-25T00:56:43;99982.19;;;13.33;100.00
53619;BME280;68717;53.040;18.488;2023-04-25T00:56:57;99986.72;;;13.32;100.00
53619;BME280;68717;53.040;18.488;2023-04-25T00:57:11;99985.88;;;13.32;100.00
53619;BME280;68717;53.040;18.488;2023-04-25T00:57:24;99979.66;;;13.31;100.00
53619;BME280;68717;53.040;18.488;2023-04-25T00:57:38;99985.03;;;13.31;100.00
53619;BME280;68717;53.040;18.488;2023-04-25T00:57:51;99986.88;;;13.31;100.00
53619;BME280;68717;53.040;18.488;2023-04-25T00:58:04;99986.72;;;13.32;100.00
53619;BME280;68717;53.040;18.488;2023-04-25T00:58:17;99985.88;;;13.32;100.00
53619;BME280;68717;53.040;18.488;2023-04-25T00:58:30;99983.00;;;13.33;100.00
53619;BME280;68717;53.040;18.488;2023-04-25T00:58:42;99990.06;;;13.34;100.00
53619;BME280;68717;53.040;18.488;2023-04-25T00:58:56;99988.41;;;13.33;100.00
53619;BME280;68717;53.040;18.488;2023-04-25T00:59:10;99992.94;;;13.33;100.00
53619;BME280;68717;53.040;18.488;2023-04-25T00:59:23;99989.41;;;13.32;100.00
53619;BME280;68717;53.040;18.488;2023-04-25T00:59:37;99992.94;;;13.33;100.00
53619;BME280;68717;53.040;18.488;2023-04-25T00:59:51;99987.38;;;13.34;100.00
53619;BME280;68717;53.040;18.488;2023-04-25T01:00:07;99984.88;;;13.33;100.00
53619;BME280;68717;53.040;18.488;2023-04-25T01:00:21;99987.56;;;13.33;100.00
53619;BME280;68717;53.040;18.488;2023-04-25T01:00:36;99993.94;;;13.32;100.00
53619;BME280;68717;53.040;18.488;2023-04-25T01:00:49;99992.13;;;13.32;100.00
53619;BME280;68717;53.040;18.488;2023-04-25T01:01:05;99990.41;;;13.31;100.00
53619;BME280;68717;53.040;18.488;2023-04-25T01:01:19;99987.03;;;13.29;100.00
53619;BME280;68717;53.040;18.488;2023-04-25T01:01:32;99984.34;;;13.29;100.00
53619;BME280;68717;53.040;18.488;2023-04-25T01:01:45;99996.97;;;13.29;100.00
53619;BME280;68717;53.040;18.488;2023-04-25T01:01:59;99989.75;;;13.29;100.00
53619;BME280;68717;53.040;18.488;2023-04-25T01:02:14;99996.97;;;13.29;100.00
53619;BME280;68717;53.040;18.488;2023-04-25T01:02:27;99988.91;;;13.29;100.00
53619;BME280;68717;53.040;18.488;2023-04-25T01:02:41;99995.28;;;13.28;100.00
53619;BME280;68717;53.040;18.488;2023-04-25T01:02:55;99992.59;;;13.28;100.00
53619;BME280;68717;53.040;18.488;2023-04-25T01:03:08;99995.13;;;13.29;100.00
53619;BME280;68717;53.040;18.488;2023-04-25T01:03:22;99996.16;;;13.28;100.00
53619;BME280;68717;53.040;18.488;2023-04-25T01:03:37;99991.75;;;13.27;100.00
53619;BME280;68717;53.040;18.488;2023-04-25T01:03:54;99997.13;;;13.27;100.00
53619;BME280;68717;53.040;18.488;2023-04-25T01:04:07;99999.00;;;13.27;100.00
53619;BME280;68717;53.040;18.488;2023-04-25T01:04:20;99991.09;;;13.25;100.00
53619;BME280;68717;53.040;18.488;2023-04-25T01:04:34;99988.38;;;13.25;100.00
53619;BME280;68717;53.040;18.488;2023-04-25T01:04:47;99991.91;;;13.26;100.00
53619;BME280;68717;53.040;18.488;2023-04-25T01:05:01;99991.09;;;13.25;100.00
53619;BME280;68717;53.040;18.488;2023-04-25T01:05:15;99997.28;;;13.26;100.00
53619;BME280;68717;53.040;18.488;2023-04-25T01:05:27;99991.91;;;13.26;100.00
53619;BME280;68717;53.040;18.488;2023-04-25T01:05:40;100004.38;;;13.27;100.00
53619;BME280;68717;53.040;18.488;2023-04-25T01:05:54;99995.97;;;13.30;100.00
53619;BME280;68717;53.040;18.488;2023-04-25T01:06:07;99998.50;;;13.31;100.00
53619;BME280;68717;53.040;18.488;2023-04-25T01:06:21;99989.56;;;13.31;100.00
53619;BME280;68717;53.040;18.488;2023-04-25T01:06:34;99990.56;;;13.30;100.00
53619;BME280;68717;53.040;18.488;2023-04-25T01:06:48;99985.38;;;13.28;100.00
53619;BME280;68717;53.040;18.488;2023-04-25T01:07:00;99997.97;;;13.28;100.00
53619;BME280;68717;53.040;18.488;2023-04-25T01:07:15;99989.06;;;13.27;100.00
53619;BME280;68717;53.040;18.488;2023-04-25T01:07:28;99993.78;;;13.25;100.00
53619;BME280;68717;53.040;18.488;2023-04-25T01:07:41;99989.41;;;13.24;100.00
53619;BME280;68717;53.040;18.488;2023-04-25T01:07:53;99993.09;;;13.23;100.00
53619;BME280;68717;53.040;18.488;2023-04-25T01:08:07;99991.28;;;13.24;100.00
53619;BME280;68717;53.040;18.488;2023-04-25T01:08:21;99989.41;;;13.24;100.00
53619;BME280;68717;53.040;18.488;2023-04-25T01:08:37;99993.09;;;13.23;100.00
53619;BME280;68717;53.040;18.488;2023-04-25T01:08:51;99991.44;;;13.22;100.00
53619;BME280;68717;53.040;18.488;2023-04-25T01:09:03;99995.97;;;13.22;100.00
53619;BME280;68717;53.040;18.488;2023-04-25T01:09:17;99999.50;;;13.22;100.00
53619;BME280;68717;53.040;18.488;2023-04-25T01:09:32;99996.81;;;13.22;100.00
53619;BME280;68717;53.040;18.488;2023-04-25T01:09:45;99995.13;;;13.21;100.00
53619;BME280;68717;53.040;18.488;2023-04-25T01:09:58;99993.44;;;13.20;100.00
53619;BME280;68717;53.040;18.488;2023-04-25T01:10:11;99994.44;;;13.19;100.00